sensor_id;sensor_type;location;lat;lon;timestamp;pressure;altitude;pressure_sealevel;temperature;humidity
73564;BME280;61834;50.196;6.454;2022-08-01T00:01:40;96575.16;;;22.26;53.70
73564;BME280;61834;50.196;6.454;2022-08-01T00:04:05;96570.38;;;22.26;53.65
73564;BME280;61834;50.196;6.454;2022-08-01T00:06:31;96573.16;;;22.26;53.64
73564;BME280;61834;50.196;6.454;2022-08-01T00:08:56;96567.59;;;22.26;53.52
73564;BME280;61834;50.196;6.454;2022-08-01T00:11:22;96572.38;;;22.26;53.95
73564;BME280;61834;50.196;6.454;2022-08-01T00:13:47;96569.59;;;22.26;53.76
73564;BME280;61834;50.196;6.454;2022-08-01T00:16:13;96575.97;;;22.26;53.92
73564;BME280;61834;50.196;6.454;2022-08-01T00:18:38;96572.38;;;22.26;53.87
73564;BME280;61834;50.196;6.454;2022-08-01T00:21:04;96571.13;;;22.27;53.69
73564;BME280;61834;50.196;6.454;2022-08-01T00:23:30;96565.56;;;22.27;53.71
73564;BME280;61834;50.196;6.454;2022-08-01T00:25:55;96572.38;;;22.26;53.52
73564;BME280;61834;50.196;6.454;2022-08-01T00:28:21;96566.00;;;22.25;53.70
73564;BME280;61834;50.196;6.454;2022-08-01T00:30:46;96560.44;;;22.25;53.59
73564;BME280;61834;50.196;6.454;2022-08-01T00:33:11;96564.47;;;22.24;53.65
73564;BME280;61834;50.196;6.454;2022-08-01T00:35:37;96566.47;;;22.24;53.31
73564;BME280;61834;50.196;6.454;2022-08-01T00:38:02;96563.69;;;22.24;53.61
73564;BME280;61834;50.196;6.454;2022-08-01T00:40:27;96562.44;;;22.25;53.44
73564;BME280;61834;50.196;6.454;2022-08-01T00:42:53;96561.22;;;22.26;53.48
73564;BME280;61834;50.196;6.454;2022-08-01T00:45:18;96552.84;;;22.26;53.59
73564;BME280;61834;50.196;6.454;2022-08-01T00:47:44;96563.69;;;22.24;53.65
73564;BME280;61834;50.196;6.454;2022-08-01T00:50:10;96558.91;;;22.24;53.26
73564;BME280;61834;50.196;6.454;2022-08-01T00:52:36;96565.69;;;22.23;53.67
73564;BME280;61834;50.196;6.454;2022-08-01T00:55:03;96560.09;;;22.23;53.24
73564;BME280;61834;50.196;6.454;2022-08-01T00:57:29;96562.91;;;22.23;53.75
73564;BME280;61834;50.196;6.454;2022-08-01T00:59:55;96556.56;;;22.23;53.65
73564;BME280;61834;50.196;6.454;2022-08-01T01:02:20;96559.34;;;22.23;53.61
73564;BME280;61834;50.196;6.454;2022-08-01T01:04:46;96555.31;;;22.24;53.32
73564;BME280;61834;50.196;6.454;2022-08-01T01:07:40;96554.53;;;22.23;53.37
73564;BME280;61834;50.196;6.454;2022-08-01T01:10:16;96547.09;;;22.20;53.45
73564;BME280;61834;50.196;6.454;2022-08-01T01:12:56;96546.63;;;22.22;53.44
73564;BME280;61834;50.196;6.454;2022-08-01T01:18:11;96553.78;;;22.23;53.20
73564;BME280;61834;50.196;6.454;2022-08-01T01:20:41;96554.22;;;22.21;53.69
73564;BME280;61834;50.196;6.454;2022-08-01T01:23:25;96551.44;;;22.21;53.48
73564;BME280;61834;50.196;6.454;2022-08-01T01:26:08;96549.41;;;22.22;53.66
73564;BME280;61834;50.196;6.454;2022-08-01T01:31:50;96551.88;;;22.20;53.24
73564;BME280;61834;50.196;6.454;2022-08-01T01:34:18;96543.22;;;22.18;53.73
73564;BME280;61834;50.196;6.454;2022-08-01T01:36:45;96552.66;;;22.20;53.30
73564;BME280;61834;50.196;6.454;2022-08-01T01:39:13;96544.28;;;22.20;53.61
73564;BME280;61834;50.196;6.454;2022-08-01T01:41:41;96549.09;;;22.20;53.32
73564;BME280;61834;50.196;6.454;2022-08-01T01:44:09;96547.53;;;22.19;53.50
73564;BME280;61834;50.196;6.454;2022-08-01T01:46:35;96543.97;;;22.18;53.64
73564;BME280;61834;50.196;6.454;2022-08-01T01:49:01;96545.06;;;22.21;53.30
73564;BME280;61834;50.196;6.454;2022-08-01T01:51:28;96546.00;;;22.18;53.71
73564;BME280;61834;50.196;6.454;2022-08-01T01:53:55;96546.75;;;22.18;53.40
73564;BME280;61834;50.196;6.454;2022-08-01T01:56:22;96544.75;;;22.19;53.65
73564;BME280;61834;50.196;6.454;2022-08-01T01:58:56;96546.75;;;22.18;53.61
73564;BME280;61834;50.196;6.454;2022-08-01T02:01:25;96543.22;;;22.18;53.31
73564;BME280;61834;50.196;6.454;2022-08-01T02:03:52;96546.00;;;22.18;53.49
73564;BME280;61834;50.196;6.454;2022-08-01T02:06:20;96541.19;;;22.18;53.73
73564;BME280;61834;50.196;6.454;2022-08-01T02:08:47;96537.63;;;22.18;53.60
73564;BME280;61834;50.196;6.454;2022-08-01T02:11:13;96536.06;;;22.17;53.62
73564;BME280;61834;50.196;6.454;2022-08-01T02:13:55;96536.84;;;22.17;53.77
73564;BME280;61834;50.196;6.454;2022-08-01T02:16:25;96533.25;;;22.17;53.79
73564;BME280;61834;50.196;6.454;2022-08-01T02:18:51;96530.94;;;22.15;53.68
73564;BME280;61834;50.196;6.454;2022-08-01T02:21:23;96528.94;;;22.16;53.40
73564;BME280;61834;50.196;6.454;2022-08-01T02:23:50;96528.94;;;22.16;53.53
73564;BME280;61834;50.196;6.454;2022-08-01T02:26:17;96530.16;;;22.15;53.54
73564;BME280;61834;50.196;6.454;2022-08-01T02:28:47;96530.16;;;22.15;53.64
73564;BME280;61834;50.196;6.454;2022-08-01T02:31:17;96526.59;;;22.14;53.61
73564;BME280;61834;50.196;6.454;2022-08-01T02:33:46;96531.38;;;22.14;53.67
73564;BME280;61834;50.196;6.454;2022-08-01T02:36:16;96536.97;;;22.14;53.57
73564;BME280;61834;50.196;6.454;2022-08-01T02:38:44;96533.41;;;22.13;53.76
73564;BME280;61834;50.196;6.454;2022-08-01T02:41:13;96536.97;;;22.14;53.56
73564;BME280;61834;50.196;6.454;2022-08-01T02:43:46;96528.94;;;22.16;53.54
73564;BME280;61834;50.196;6.454;2022-08-01T02:46:17;96527.34;;;22.15;53.37
73564;BME280;61834;50.196;6.454;2022-08-01T02:48:46;96532.19;;;22.14;53.89
73564;BME280;61834;50.196;6.454;2022-08-01T02:51:13;96529.84;;;22.13;53.36
73564;BME280;61834;50.196;6.454;2022-08-01T02:53:40;96530.16;;;22.15;53.44
73564;BME280;61834;50.196;6.454;2022-08-01T02:56:08;96526.59;;;22.14;53.50
73564;BME280;61834;50.196;6.454;2022-08-01T02:58:36;96531.38;;;22.14;53.75
73564;BME280;61834;50.196;6.454;2022-08-01T03:01:04;96522.25;;;22.13;53.60
73564;BME280;61834;50.196;6.454;2022-08-01T03:03:31;96521.47;;;22.13;53.65
73564;BME280;61834;50.196;6.454;2022-08-01T03:05:57;96523.03;;;22.14;53.42
73564;BME280;61834;50.196;6.454;2022-08-01T03:08:23;96528.59;;;22.14;53.85
73564;BME280;61834;50.196;6.454;2022-08-01T03:10:50;96518.22;;;22.14;53.40
73564;BME280;61834;50.196;6.454;2022-08-01T03:13:17;96516.19;;;22.15;53.39
73564;BME280;61834;50.196;6.454;2022-08-01T03:15:45;96511.88;;;22.14;53.70
73564;BME280;61834;50.196;6.454;2022-08-01T03:18:12;96521.34;;;22.16;53.51
73564;BME280;61834;50.196;6.454;2022-08-01T03:20:39;96513.88;;;22.13;53.56
73564;BME280;61834;50.196;6.454;2022-08-01T03:23:07;96509.53;;;22.12;53.44
73564;BME280;61834;50.196;6.454;2022-08-01T03:25:37;96516.66;;;22.13;53.94
73564;BME280;61834;50.196;6.454;2022-08-01T03:28:04;96516.66;;;22.13;53.92
73564;BME280;61834;50.196;6.454;2022-08-01T03:30:32;96515.91;;;22.13;53.68
73564;BME280;61834;50.196;6.454;2022-08-01T03:32:58;96517.13;;;22.12;53.78
73564;BME280;61834;50.196;6.454;2022-08-01T03:35:33;96525.50;;;22.12;53.76
73564;BME280;61834;50.196;6.454;2022-08-01T03:38:01;96521.94;;;22.11;53.72
73564;BME280;61834;50.196;6.454;2022-08-01T03:40:49;96515.56;;;22.11;53.76
73564;BME280;61834;50.196;6.454;2022-08-01T03:43:20;96521.63;;;22.09;53.55
73564;BME280;61834;50.196;6.454;2022-08-01T03:45:50;96523.16;;;22.10;53.98
73564;BME280;61834;50.196;6.454;2022-08-01T03:48:18;96529.53;;;22.11;53.80
73564;BME280;61834;50.196;6.454;2022-08-01T03:50:48;96525.16;;;22.10;53.72
73564;BME280;61834;50.196;6.454;2022-08-01T03:53:15;96519.59;;;22.10;53.61
73564;BME280;61834;50.196;6.454;2022-08-01T03:55:43;96523.16;;;22.10;54.09
73564;BME280;61834;50.196;6.454;2022-08-01T03:58:09;96526.41;;;22.09;53.90
73564;BME280;61834;50.196;6.454;2022-08-01T04:00:39;96520.38;;;22.10;53.76
73564;BME280;61834;50.196;6.454;2022-08-01T04:03:07;96523.16;;;22.10;53.77
73564;BME280;61834;50.196;6.454;2022-08-01T04:05:33;96523.16;;;22.10;53.83
73564;BME280;61834;50.196;6.454;2022-08-01T04:07:58;96525.94;;;22.10;54.01
73564;BME280;61834;50.196;6.454;2022-08-01T04:10:25;96522.81;;;22.08;53.79
73564;BME280;61834;50.196;6.454;2022-08-01T04:12:51;96526.41;;;22.09;53.84
73564;BME280;61834;50.196;6.454;2022-08-01T04:15:17;96527.19;;;22.09;53.82
73564;BME280;61834;50.196;6.454;2022-08-01T04:17:42;96526.41;;;22.09;53.82
73564;BME280;61834;50.196;6.454;2022-08-01T04:20:08;96526.84;;;22.07;53.73
73564;BME280;61834;50.196;6.454;2022-08-01T04:22:34;96534.75;;;22.09;54.07
73564;BME280;61834;50.196;6.454;2022-08-01T04:25:05;96523.28;;;22.07;53.88
73564;BME280;61834;50.196;6.454;2022-08-01T04:27:37;96529.19;;;22.09;54.06
73564;BME280;61834;50.196;6.454;2022-08-01T04:30:05;96533.69;;;22.06;54.20
73564;BME280;61834;50.196;6.454;2022-08-01T04:32:33;96534.44;;;22.07;53.89
73564;BME280;61834;50.196;6.454;2022-08-01T04:35:05;96539.25;;;22.06;54.08
73564;BME280;61834;50.196;6.454;2022-08-01T04:37:32;96537.69;;;22.05;54.23
73564;BME280;61834;50.196;6.454;2022-08-01T04:39:59;96530.88;;;22.06;54.08
73564;BME280;61834;50.196;6.454;2022-08-01T04:42:25;96538.47;;;22.06;53.84
73564;BME280;61834;50.196;6.454;2022-08-01T04:44:53;96548.38;;;22.07;53.97
73564;BME280;61834;50.196;6.454;2022-08-01T04:47:18;96550.41;;;22.06;53.65
73564;BME280;61834;50.196;6.454;2022-08-01T04:49:45;96554.41;;;22.05;54.00
73564;BME280;61834;50.196;6.454;2022-08-01T04:52:11;96554.41;;;22.05;53.84
73564;BME280;61834;50.196;6.454;2022-08-01T04:54:36;96556.41;;;22.05;54.20
73564;BME280;61834;50.196;6.454;2022-08-01T04:57:03;96557.19;;;22.05;54.03
73564;BME280;61834;50.196;6.454;2022-08-01T04:59:30;96559.97;;;22.05;53.79
73564;BME280;61834;50.196;6.454;2022-08-01T05:02:05;96559.97;;;22.05;53.77
73564;BME280;61834;50.196;6.454;2022-08-01T05:04:30;96557.66;;;22.04;53.93
73564;BME280;61834;50.196;6.454;2022-08-01T05:06:56;96571.13;;;22.05;53.94
73564;BME280;61834;50.196;6.454;2022-08-01T05:09:21;96564.78;;;22.05;53.90
73564;BME280;61834;50.196;6.454;2022-08-01T05:11:46;96572.38;;;22.04;53.88
73564;BME280;61834;50.196;6.454;2022-08-01T05:14:12;96564.78;;;22.05;53.97
73564;BME280;61834;50.196;6.454;2022-08-01T05:16:37;96571.59;;;22.04;53.85
73564;BME280;61834;50.196;6.454;2022-08-01T05:19:03;96573.13;;;22.05;54.06
73564;BME280;61834;50.196;6.454;2022-08-01T05:21:28;96580.75;;;22.04;53.83
73564;BME280;61834;50.196;6.454;2022-08-01T05:23:53;96577.97;;;22.04;53.78
73564;BME280;61834;50.196;6.454;2022-08-01T05:26:19;96581.97;;;22.03;53.83
73564;BME280;61834;50.196;6.454;2022-08-01T05:28:44;96582.28;;;22.05;53.79
73564;BME280;61834;50.196;6.454;2022-08-01T05:31:09;96582.28;;;22.05;54.17
73564;BME280;61834;50.196;6.454;2022-08-01T05:33:37;96577.16;;;22.04;54.07
73564;BME280;61834;50.196;6.454;2022-08-01T05:36:02;96577.97;;;22.04;54.16
73564;BME280;61834;50.196;6.454;2022-08-01T05:38:28;96575.16;;;22.04;54.24
73564;BME280;61834;50.196;6.454;2022-08-01T05:40:53;96582.28;;;22.05;54.20
73564;BME280;61834;50.196;6.454;2022-08-01T05:43:18;96575.50;;;22.06;54.04
73564;BME280;61834;50.196;6.454;2022-08-01T05:45:44;96570.34;;;22.05;53.90
73564;BME280;61834;50.196;6.454;2022-08-01T05:48:11;96564.78;;;22.05;54.14
73564;BME280;61834;50.196;6.454;2022-08-01T05:50:36;96570.34;;;22.05;54.19
73564;BME280;61834;50.196;6.454;2022-08-01T05:53:02;96570.34;;;22.05;54.04
73564;BME280;61834;50.196;6.454;2022-08-01T05:55:27;96572.38;;;22.04;54.19
73564;BME280;61834;50.196;6.454;2022-08-01T05:57:52;96583.53;;;22.04;53.98
73564;BME280;61834;50.196;6.454;2022-08-01T06:00:18;96583.53;;;22.04;54.02
73564;BME280;61834;50.196;6.454;2022-08-01T06:02:43;96583.53;;;22.04;53.88
73564;BME280;61834;50.196;6.454;2022-08-01T06:05:09;96580.28;;;22.06;54.07
73564;BME280;61834;50.196;6.454;2022-08-01T06:07:35;96584.28;;;22.05;53.79
73564;BME280;61834;50.196;6.454;2022-08-01T06:10:00;96585.09;;;22.05;53.88
73564;BME280;61834;50.196;6.454;2022-08-01T06:12:26;96587.09;;;22.05;53.91
73564;BME280;61834;50.196;6.454;2022-08-01T06:14:51;96589.88;;;22.05;54.25
73564;BME280;61834;50.196;6.454;2022-08-01T06:17:16;96589.88;;;22.05;53.86
73564;BME280;61834;50.196;6.454;2022-08-01T06:19:42;96590.66;;;22.05;53.97
73564;BME280;61834;50.196;6.454;2022-08-01T06:22:07;96589.88;;;22.05;54.48
73564;BME280;61834;50.196;6.454;2022-08-01T06:24:32;96591.91;;;22.04;54.12
73564;BME280;61834;50.196;6.454;2022-08-01T06:26:58;96584.28;;;22.05;54.32
73564;BME280;61834;50.196;6.454;2022-08-01T06:29:23;96579.97;;;22.04;54.40
73564;BME280;61834;50.196;6.454;2022-08-01T06:31:49;96582.75;;;22.04;53.90
73564;BME280;61834;50.196;6.454;2022-08-01T06:34:15;96579.16;;;22.03;54.04
73564;BME280;61834;50.196;6.454;2022-08-01T06:36:40;96583.53;;;22.04;54.03
73564;BME280;61834;50.196;6.454;2022-08-01T06:39:06;96585.53;;;22.04;54.01
73564;BME280;61834;50.196;6.454;2022-08-01T06:41:31;96586.31;;;22.04;54.01
73564;BME280;61834;50.196;6.454;2022-08-01T06:43:57;96587.09;;;22.05;53.97
73564;BME280;61834;50.196;6.454;2022-08-01T06:46:22;96589.13;;;22.04;54.19
73564;BME280;61834;50.196;6.454;2022-08-01T06:48:48;96599.81;;;22.06;54.15
73564;BME280;61834;50.196;6.454;2022-08-01T06:51:13;96594.69;;;22.04;54.48
73564;BME280;61834;50.196;6.454;2022-08-01T06:53:41;96596.22;;;22.05;54.08
73564;BME280;61834;50.196;6.454;2022-08-01T06:56:07;96609.38;;;22.05;54.38
73564;BME280;61834;50.196;6.454;2022-08-01T06:58:34;96596.69;;;22.04;54.23
73564;BME280;61834;50.196;6.454;2022-08-01T07:01:00;96603.81;;;22.05;53.98
73564;BME280;61834;50.196;6.454;2022-08-01T07:03:26;96606.59;;;22.05;54.07
73564;BME280;61834;50.196;6.454;2022-08-01T07:05:52;96603.06;;;22.04;54.38
73564;BME280;61834;50.196;6.454;2022-08-01T07:08:17;96597.47;;;22.04;54.07
73564;BME280;61834;50.196;6.454;2022-08-01T07:10:43;96604.25;;;22.03;54.52
73564;BME280;61834;50.196;6.454;2022-08-01T07:13:08;96607.84;;;22.04;54.08
73564;BME280;61834;50.196;6.454;2022-08-01T07:15:35;96611.41;;;22.04;54.49
73564;BME280;61834;50.196;6.454;2022-08-01T07:18:00;96603.81;;;22.05;54.14
73564;BME280;61834;50.196;6.454;2022-08-01T07:20:28;96603.06;;;22.04;54.57
73564;BME280;61834;50.196;6.454;2022-08-01T07:22:54;96607.84;;;22.04;54.47
73564;BME280;61834;50.196;6.454;2022-08-01T07:25:19;96609.38;;;22.05;54.44
73564;BME280;61834;50.196;6.454;2022-08-01T07:27:45;96601.47;;;22.03;54.54
73564;BME280;61834;50.196;6.454;2022-08-01T07:30:10;96608.63;;;22.04;54.54
73564;BME280;61834;50.196;6.454;2022-08-01T07:32:36;96614.22;;;22.04;54.53
73564;BME280;61834;50.196;6.454;2022-08-01T07:35:02;96608.63;;;22.04;54.39
73564;BME280;61834;50.196;6.454;2022-08-01T07:37:28;96614.97;;;22.05;54.47
73564;BME280;61834;50.196;6.454;2022-08-01T07:39:53;96612.97;;;22.05;54.58
73564;BME280;61834;50.196;6.454;2022-08-01T07:42:19;96610.97;;;22.06;54.10
73564;BME280;61834;50.196;6.454;2022-08-01T07:44:44;96604.59;;;22.05;54.25
73564;BME280;61834;50.196;6.454;2022-08-01T07:47:09;96617.00;;;22.04;54.34
73564;BME280;61834;50.196;6.454;2022-08-01T07:49:35;96610.63;;;22.04;54.44
73564;BME280;61834;50.196;6.454;2022-08-01T07:52:00;96621.31;;;22.05;54.64
73564;BME280;61834;50.196;6.454;2022-08-01T07:54:26;96617.75;;;22.05;54.43
73564;BME280;61834;50.196;6.454;2022-08-01T07:56:53;96614.22;;;22.04;54.16
73564;BME280;61834;50.196;6.454;2022-08-01T07:59:19;96623.78;;;22.03;54.67
73564;BME280;61834;50.196;6.454;2022-08-01T08:01:48;96621.31;;;22.05;54.24
73564;BME280;61834;50.196;6.454;2022-08-01T08:04:14;96626.13;;;22.05;54.58
73564;BME280;61834;50.196;6.454;2022-08-01T08:06:40;96617.00;;;22.04;54.36
73564;BME280;61834;50.196;6.454;2022-08-01T08:09:06;96618.53;;;22.05;54.09
73564;BME280;61834;50.196;6.454;2022-08-01T08:11:32;96622.56;;;22.04;54.24
73564;BME280;61834;50.196;6.454;2022-08-01T08:13:57;96620.53;;;22.05;54.55
73564;BME280;61834;50.196;6.454;2022-08-01T08:16:23;96628.47;;;22.06;54.51
73564;BME280;61834;50.196;6.454;2022-08-01T08:18:48;96620.13;;;22.06;54.16
73564;BME280;61834;50.196;6.454;2022-08-01T08:21:13;96617.63;;;22.08;54.52
73564;BME280;61834;50.196;6.454;2022-08-01T08:23:39;96625.69;;;22.06;54.51
73564;BME280;61834;50.196;6.454;2022-08-01T08:26:23;96631.28;;;22.06;54.38
73564;BME280;61834;50.196;6.454;2022-08-01T08:28:49;96634.81;;;22.07;54.26
73564;BME280;61834;50.196;6.454;2022-08-01T08:31:14;96627.22;;;22.07;54.06
73564;BME280;61834;50.196;6.454;2022-08-01T08:33:40;96626.00;;;22.08;54.24
73564;BME280;61834;50.196;6.454;2022-08-01T08:36:05;96624.31;;;22.11;54.32
73564;BME280;61834;50.196;6.454;2022-08-01T08:38:30;96628.31;;;22.10;54.19
73564;BME280;61834;50.196;6.454;2022-08-01T08:40:56;96628.31;;;22.10;53.94
73564;BME280;61834;50.196;6.454;2022-08-01T08:43:22;96626.31;;;22.10;54.07
73564;BME280;61834;50.196;6.454;2022-08-01T08:45:50;96633.91;;;22.10;54.10
73564;BME280;61834;50.196;6.454;2022-08-01T08:48:16;96625.53;;;22.10;53.77
73564;BME280;61834;50.196;6.454;2022-08-01T08:50:43;96635.94;;;22.09;53.75
73564;BME280;61834;50.196;6.454;2022-08-01T08:53:13;96631.13;;;22.10;53.78
73564;BME280;61834;50.196;6.454;2022-08-01T08:55:40;96634.34;;;22.08;53.76
73564;BME280;61834;50.196;6.454;2022-08-01T08:58:13;96632.34;;;22.09;53.94
73564;BME280;61834;50.196;6.454;2022-08-01T09:00:40;96632.34;;;22.09;53.83
73564;BME280;61834;50.196;6.454;2022-08-01T09:03:06;96630.34;;;22.09;54.01
73564;BME280;61834;50.196;6.454;2022-08-01T09:05:31;96630.34;;;22.09;53.96
73564;BME280;61834;50.196;6.454;2022-08-01T09:07:56;96632.69;;;22.11;53.46
73564;BME280;61834;50.196;6.454;2022-08-01T09:10:22;96629.91;;;22.11;53.45
73564;BME280;61834;50.196;6.454;2022-08-01T09:13:07;96632.69;;;22.11;53.71
73564;BME280;61834;50.196;6.454;2022-08-01T09:15:44;96629.44;;;22.12;53.66
73564;BME280;61834;50.196;6.454;2022-08-01T09:21:19;96641.84;;;22.11;53.56
73564;BME280;61834;50.196;6.454;2022-08-01T09:23:48;96637.03;;;22.12;53.36
73564;BME280;61834;50.196;6.454;2022-08-01T09:26:17;96642.59;;;22.12;53.80
73564;BME280;61834;50.196;6.454;2022-08-01T09:28:43;96642.94;;;22.14;53.72
73564;BME280;61834;50.196;6.454;2022-08-01T09:31:14;96650.50;;;22.13;53.30
73564;BME280;61834;50.196;6.454;2022-08-01T09:33:49;96648.06;;;22.15;53.71
73564;BME280;61834;50.196;6.454;2022-08-01T09:36:15;96647.28;;;22.15;53.27
73564;BME280;61834;50.196;6.454;2022-08-01T09:38:40;96647.72;;;22.13;53.61
73564;BME280;61834;50.196;6.454;2022-08-01T09:41:06;96653.63;;;22.15;53.65
73564;BME280;61834;50.196;6.454;2022-08-01T09:43:33;96660.00;;;22.16;53.40
73564;BME280;61834;50.196;6.454;2022-08-01T09:46:02;96648.38;;;22.17;53.66
73564;BME280;61834;50.196;6.454;2022-08-01T09:48:29;96661.88;;;22.19;53.16
73564;BME280;61834;50.196;6.454;2022-08-01T09:50:55;96655.84;;;22.20;53.56
73564;BME280;61834;50.196;6.454;2022-08-01T09:53:21;96648.28;;;22.21;53.29
73564;BME280;61834;50.196;6.454;2022-08-01T09:55:46;96663.75;;;22.22;53.51
73564;BME280;61834;50.196;6.454;2022-08-01T09:58:12;96661.75;;;22.22;53.11
73564;BME280;61834;50.196;6.454;2022-08-01T10:00:39;96660.06;;;22.25;53.53
73564;BME280;61834;50.196;6.454;2022-08-01T10:03:23;96650.47;;;22.26;53.13
73564;BME280;61834;50.196;6.454;2022-08-01T10:05:49;96654.81;;;22.27;53.59
73564;BME280;61834;50.196;6.454;2022-08-01T10:08:16;96651.69;;;22.25;53.69
73564;BME280;61834;50.196;6.454;2022-08-01T10:11:09;96640.53;;;22.25;53.45
73564;BME280;61834;50.196;6.454;2022-08-01T10:13:35;96636.66;;;22.22;53.42
73564;BME280;61834;50.196;6.454;2022-08-01T10:16:01;96633.41;;;22.24;53.44
73564;BME280;61834;50.196;6.454;2022-08-01T10:18:28;96630.94;;;22.26;53.68
73564;BME280;61834;50.196;6.454;2022-08-01T10:20:55;96636.53;;;22.26;53.68
73564;BME280;61834;50.196;6.454;2022-08-01T10:23:22;96636.53;;;22.26;53.45
73564;BME280;61834;50.196;6.454;2022-08-01T10:25:50;96636.53;;;22.26;53.46
73564;BME280;61834;50.196;6.454;2022-08-01T10:28:19;96637.31;;;22.26;53.69
73564;BME280;61834;50.196;6.454;2022-08-01T10:30:45;96633.75;;;22.26;53.34
73564;BME280;61834;50.196;6.454;2022-08-01T10:33:12;96624.59;;;22.25;53.92
73564;BME280;61834;50.196;6.454;2022-08-01T10:35:38;96630.50;;;22.27;53.65
73564;BME280;61834;50.196;6.454;2022-08-01T10:38:05;96627.25;;;22.29;53.42
73564;BME280;61834;50.196;6.454;2022-08-01T10:40:30;96632.03;;;22.28;53.60
73564;BME280;61834;50.196;6.454;2022-08-01T10:42:56;96633.28;;;22.27;53.53
73564;BME280;61834;50.196;6.454;2022-08-01T10:45:22;96618.44;;;22.30;53.23
73564;BME280;61834;50.196;6.454;2022-08-01T10:50:45;96622.00;;;22.31;53.40
73564;BME280;61834;50.196;6.454;2022-08-01T10:53:15;96628.66;;;22.33;53.07
73564;BME280;61834;50.196;6.454;2022-08-01T10:55:58;96620.00;;;22.31;53.40
73564;BME280;61834;50.196;6.454;2022-08-01T10:58:35;96622.00;;;22.31;53.39
73564;BME280;61834;50.196;6.454;2022-08-01T11:03:41;96624.78;;;22.31;53.16
73564;BME280;61834;50.196;6.454;2022-08-01T11:06:14;96631.16;;;22.31;53.59
73564;BME280;61834;50.196;6.454;2022-08-01T11:08:41;96626.78;;;22.30;53.55
73564;BME280;61834;50.196;6.454;2022-08-01T11:11:07;96625.41;;;22.35;53.41
73564;BME280;61834;50.196;6.454;2022-08-01T11:16:34;96630.25;;;22.34;53.03
73564;BME280;61834;50.196;6.454;2022-08-01T11:19:01;96629.47;;;22.34;53.09
73564;BME280;61834;50.196;6.454;2022-08-01T11:27:28;96624.78;;;22.31;53.40
73564;BME280;61834;50.196;6.454;2022-08-01T11:32:48;96624.22;;;22.36;53.49
73564;BME280;61834;50.196;6.454;2022-08-01T11:35:15;96623.88;;;22.34;53.04
73564;BME280;61834;50.196;6.454;2022-08-01T11:37:41;96629.78;;;22.36;53.13
73564;BME280;61834;50.196;6.454;2022-08-01T11:42:46;96624.22;;;22.36;52.96
73564;BME280;61834;50.196;6.454;2022-08-01T11:45:12;96627.78;;;22.36;53.12
73564;BME280;61834;50.196;6.454;2022-08-01T11:50:35;96621.63;;;22.41;53.02
73564;BME280;61834;50.196;6.454;2022-08-01T11:53:03;96616.94;;;22.38;52.89
73564;BME280;61834;50.196;6.454;2022-08-01T11:55:29;96621.28;;;22.39;53.02
73564;BME280;61834;50.196;6.454;2022-08-01T11:58:05;96612.59;;;22.37;53.00
73564;BME280;61834;50.196;6.454;2022-08-01T12:00:31;96604.22;;;22.37;52.89
73564;BME280;61834;50.196;6.454;2022-08-01T12:03:02;96609.34;;;22.39;53.25
73564;BME280;61834;50.196;6.454;2022-08-01T12:05:29;96613.84;;;22.36;53.15
73564;BME280;61834;50.196;6.454;2022-08-01T12:07:56;96610.72;;;22.34;53.32
73564;BME280;61834;50.196;6.454;2022-08-01T12:10:27;96609.47;;;22.35;53.30
73564;BME280;61834;50.196;6.454;2022-08-01T12:13:00;96616.16;;;22.38;53.35
73564;BME280;61834;50.196;6.454;2022-08-01T12:15:38;96612.25;;;22.35;52.95
73564;BME280;61834;50.196;6.454;2022-08-01T12:18:05;96611.47;;;22.35;53.43
73564;BME280;61834;50.196;6.454;2022-08-01T12:20:36;96607.94;;;22.34;52.93
73564;BME280;61834;50.196;6.454;2022-08-01T12:23:04;96609.94;;;22.34;53.22
73564;BME280;61834;50.196;6.454;2022-08-01T12:25:34;96623.88;;;22.34;53.18
73564;BME280;61834;50.196;6.454;2022-08-01T12:28:04;96617.06;;;22.35;52.93
73564;BME280;61834;50.196;6.454;2022-08-01T12:30:30;96619.41;;;22.36;53.29
73564;BME280;61834;50.196;6.454;2022-08-01T12:32:57;96605.47;;;22.36;52.82
73564;BME280;61834;50.196;6.454;2022-08-01T12:35:25;96619.72;;;22.38;52.90
73564;BME280;61834;50.196;6.454;2022-08-01T12:37:52;96610.88;;;22.40;52.98
73564;BME280;61834;50.196;6.454;2022-08-01T12:40:26;96608.09;;;22.40;52.82
73564;BME280;61834;50.196;6.454;2022-08-01T12:42:58;96618.50;;;22.39;53.13
73564;BME280;61834;50.196;6.454;2022-08-01T12:45:25;96614.78;;;22.42;53.06
73564;BME280;61834;50.196;6.454;2022-08-01T12:47:53;96617.47;;;22.46;52.97
73564;BME280;61834;50.196;6.454;2022-08-01T12:50:20;96610.63;;;22.47;52.77
73564;BME280;61834;50.196;6.454;2022-08-01T12:52:46;96617.47;;;22.46;52.73
73564;BME280;61834;50.196;6.454;2022-08-01T12:55:23;96614.78;;;22.42;nan
73564;BME280;61834;50.196;6.454;2022-08-01T12:58:08;96625.63;;;22.40;53.10
73564;BME280;61834;50.196;6.454;2022-08-01T13:00:35;96626.09;;;22.39;53.44
73564;BME280;61834;50.196;6.454;2022-08-01T13:05:26;96642.81;;;22.39;53.41
73564;BME280;61834;50.196;6.454;2022-08-01T13:07:52;96632.78;;;22.41;53.36
73564;BME280;61834;50.196;6.454;2022-08-01T13:10:29;96632.44;;;22.39;53.42
73564;BME280;61834;50.196;6.454;2022-08-01T13:12:57;96636.47;;;22.38;53.53
73564;BME280;61834;50.196;6.454;2022-08-01T13:15:24;96641.28;;;22.38;53.34
73564;BME280;61834;50.196;6.454;2022-08-01T13:17:52;96634.91;;;22.37;53.40
73564;BME280;61834;50.196;6.454;2022-08-01T13:20:34;96630.88;;;22.38;53.60
73564;BME280;61834;50.196;6.454;2022-08-01T13:23:14;96645.63;;;22.39;53.41
73564;BME280;61834;50.196;6.454;2022-08-01T13:26:06;96640.03;;;22.39;53.51
73564;BME280;61834;50.196;6.454;2022-08-01T13:28:32;96638.50;;;22.38;53.47
73564;BME280;61834;50.196;6.454;2022-08-01T13:31:06;96641.16;;;22.41;53.80
73564;BME280;61834;50.196;6.454;2022-08-01T13:33:46;96651.06;;;22.42;53.41
73564;BME280;61834;50.196;6.454;2022-08-01T13:36:14;96647.50;;;22.42;53.75
73564;BME280;61834;50.196;6.454;2022-08-01T13:38:41;96645.16;;;22.40;53.44